WMKIVTSR

Guest
Details From WMKI - Ipoh/Sultan Azlan Shaw
To VTSR - Ranong
Flight Number -
Tags decoded
Created
Modified
Stats Distance 349 nm / 647 km
Max Altitude 0 ft / 0 m
Waypoints 4
Social Downloads 0
Likes 0
Share VATSIM

Download

Looking for another format? Having issues loading an existing format? Contact us
Advertisement - Login to hide

Notes

Requested: WMKI BTR TRN SRT VTSR

Route

WMKI TRN SRT VTSR

ID Type Via Altitude Latitude Longitude Leg Dist Tot Dist Heading (true) Name
O WMKI APT - 0 ft / 0 m 4.56797˚ 101.09219˚ - 0 nm - Ipoh/Sultan Azlan Shaw
TRN VOR - 0 ft / 0 m 7.50894˚ 99.62602˚ 197 nm 197 nm 334° / 334° TRANG VOR-DME
SRT DME - 0 ft / 0 m 9.13304˚ 99.13162˚ 101 nm 299 nm 343° / 343° SURAT THANI TACAN
O VTSR APT - 0 ft / 0 m 9.77762˚ 98.58548˚ 50 nm 349 nm 320° / 320° Ranong

Altitude Profile

Advertisement - Login to hide

Weather


0- 5 10 15 20 25 30 35+ Temperature / ° C

Clouds and Precipitation
Forecast for 2017-12-17 12:00 UTC. Updated an hour ago

Ground ~20,000 ft ~40,000 ft Winds

WMKI

Details ICAO WMKI (IPH)
Name Ipoh/Sultan Azlan Shaw
Region Malaysia (Peninsular Malaysia)
Timezone Asia/Kuala_Lumpur (UTC+8.0)
Stats Elevation 130 ft / 40 m (AMSL)
Location 4.567972° 101.092195°
Runways 1
Magnetic Variation 0.117° W

METAR

WMKI 170800Z 21005KT 120V250 9999 FEW017CB BKN280 33/24 Q1009

Decode

TAF

Not found

Departure Runways

ID Width Length Bearing (true) Bearing (mag) Surface Threshold Offset Overrun Length
04 121 ft / 37 m 5,917 ft / 1,804 m 41.21° 41.33° Asphalt 0 ft / 0 m 0 ft / 0 m
22 121 ft / 37 m 5,917 ft / 1,804 m 221.21° 221.33° Asphalt 0 ft / 0 m 0 ft / 0 m

VTSR

Details ICAO VTSR
Name Ranong
Region Thailand
Timezone Asia/Bangkok (UTC+7.0)
Stats Elevation 57 ft / 17 m (AMSL)
Location 9.777622° 98.585483°
Runways 1
Magnetic Variation 0.459° W

METAR

VTSR 170800Z VRB09G20KT 9999 DZ FEW023 BKN066 26/21 Q1011 NOSIG

Decode

TAF

TAF VTSR 170500Z 1706/1806 34010KT 9999 FEW025 TEMPO 1706/1710 VRB10G20KT 3000 TSRA FEW018CB SCT020 BKN100 BECMG 1712/1714 VRB02KT SCT032 BECMG 1800/1802 30008KT FEW030

Decode

Destination Runways

ID Width Length Bearing (true) Bearing (mag) Surface Threshold Offset Overrun Length
02 148 ft / 45 m 6,596 ft / 2,010 m 23.62° 24.08° Concrete 0 ft / 0 m 197 ft / 60 m
20 148 ft / 45 m 6,596 ft / 2,010 m 203.62° 204.08° Concrete 0 ft / 0 m 197 ft / 60 m

Approach Navaids

Runway Type Ident Frequency Range Bearing (true) Bearing (mag) Slope Elevation
02 Localiser IRAN 110.50 MHz 18 nm / 33 km 23.62° 24.08° - 57 ft / 17 m (AMSL)
02 Glidescope IRAN 110.50 MHz 10 nm / 19 km 23.62° 24.08° 3.00° 36 ft / 11 m (AMSL)
02 DME IRAN 111.10 MHz 18 nm / 33 km - - - 57 ft / 17 m (AMSL)

Popular Alternatives